createdAt,value
2023-04-17T00:00:31.172Z,25.92
2023-04-17T00:02:58.420Z,24.38
2023-04-17T00:05:26.485Z,25.20
2023-04-17T00:07:54.238Z,26.02
2023-04-17T00:10:21.343Z,23.85
2023-04-17T00:12:48.599Z,22.98
2023-04-17T00:15:15.747Z,22.63
2023-04-17T00:17:42.886Z,24.10
2023-04-17T00:20:10.670Z,22.43
2023-04-17T00:22:38.288Z,21.15
2023-04-17T00:25:05.469Z,26.92
2023-04-17T00:27:32.533Z,26.45
2023-04-17T00:29:59.591Z,23.52
2023-04-17T00:32:26.734Z,26.90
2023-04-17T00:34:55.713Z,22.65
2023-04-17T00:37:23.276Z,23.98
2023-04-17T00:39:50.315Z,25.30
2023-04-17T00:42:17.377Z,26.20
2023-04-17T00:44:44.430Z,25.70
2023-04-17T00:47:11.492Z,25.33
2023-04-17T00:49:38.529Z,25.50
2023-04-17T00:52:05.673Z,25.48
2023-04-17T00:54:32.735Z,25.10
2023-04-17T00:56:59.805Z,24.33
2023-04-17T00:59:26.857Z,25.13
2023-04-17T01:01:53.998Z,24.00
2023-04-17T01:04:21.319Z,23.92
2023-04-17T01:06:48.433Z,30.17
2023-04-17T01:09:15.494Z,25.53
2023-04-17T01:11:42.558Z,30.27
2023-04-17T01:14:09.623Z,24.73
2023-04-17T01:16:39.000Z,29.98
2023-04-17T01:19:06.231Z,25.92
2023-04-17T01:21:33.509Z,26.55
2023-04-17T01:24:02.966Z,26.75
2023-04-17T01:26:30.020Z,26.08
2023-04-17T01:28:57.660Z,25.80
2023-04-17T01:31:25.101Z,25.35
2023-04-17T01:33:52.311Z,26.98
2023-04-17T01:36:19.406Z,26.80
2023-04-17T01:38:46.485Z,27.92
2023-04-17T01:41:13.534Z,27.90
2023-04-17T01:43:44.129Z,25.90
2023-04-17T01:46:11.356Z,26.40
2023-04-17T01:48:38.573Z,27.52
2023-04-17T01:51:05.982Z,27.35
2023-04-17T01:53:33.478Z,25.33
2023-04-17T01:56:01.661Z,28.73
2023-04-17T01:58:28.729Z,23.70
2023-04-17T02:00:55.850Z,23.50
2023-04-17T02:03:24.481Z,24.70
2023-04-17T02:05:52.776Z,25.40
2023-04-17T02:08:19.922Z,24.50
2023-04-17T02:10:46.980Z,22.33
2023-04-17T02:13:14.034Z,23.92
2023-04-17T02:15:41.136Z,26.07
2023-04-17T02:18:08.650Z,24.58
2023-04-17T02:20:35.926Z,21.57
2023-04-17T02:23:03.072Z,22.52
2023-04-17T02:25:30.274Z,25.75
2023-04-17T02:27:57.361Z,22.05
2023-04-17T02:30:24.997Z,23.60
2023-04-17T02:32:52.841Z,24.70
2023-04-17T02:35:24.121Z,22.08
2023-04-17T02:37:51.767Z,24.85
2023-04-17T02:40:18.883Z,24.25
2023-04-17T02:42:45.976Z,25.42
2023-04-17T02:45:13.029Z,22.23
2023-04-17T02:47:40.157Z,23.35
2023-04-17T02:50:07.664Z,21.98
2023-04-17T02:52:34.760Z,25.35
2023-04-17T02:55:01.819Z,22.02
2023-04-17T02:57:28.917Z,22.70
2023-04-17T02:59:56.149Z,24.92
2023-04-17T03:02:23.864Z,22.17
2023-04-17T03:04:51.213Z,23.05
2023-04-17T03:07:18.716Z,27.02
2023-04-17T03:09:49.155Z,26.55
2023-04-17T03:12:16.429Z,25.35
2023-04-17T03:14:43.717Z,25.92
2023-04-17T03:17:11.675Z,22.35
2023-04-17T03:19:38.826Z,25.80
2023-04-17T03:22:05.939Z,25.35
2023-04-17T03:24:33.004Z,27.58
2023-04-17T03:27:00.926Z,23.95
2023-04-17T03:29:27.969Z,25.75
2023-04-17T03:31:55.036Z,23.70
2023-04-17T03:34:22.304Z,26.15
2023-04-17T03:36:49.356Z,27.35
2023-04-17T03:39:16.573Z,25.65
2023-04-17T03:41:43.655Z,25.05
2023-04-17T03:44:10.734Z,24.83
2023-04-17T03:46:38.247Z,24.65
2023-04-17T03:49:05.575Z,23.73
2023-04-17T03:51:32.668Z,27.33
2023-04-17T03:53:59.908Z,23.60
2023-04-17T03:56:27.061Z,23.23
2023-04-17T03:58:54.182Z,25.42
2023-04-17T04:01:22.312Z,24.25
2023-04-17T04:03:49.992Z,25.25
2023-04-17T04:06:20.173Z,24.75
2023-04-17T04:08:47.304Z,24.02
2023-04-17T04:11:14.443Z,24.33
2023-04-17T04:13:41.552Z,20.83
2023-04-17T04:16:08.908Z,25.95
2023-04-17T04:18:36.564Z,23.65
2023-04-17T04:21:03.674Z,21.80
2023-04-17T04:23:30.946Z,23.25
2023-04-17T04:25:58.067Z,26.25
2023-04-17T04:28:27.913Z,26.13
2023-04-17T04:30:55.098Z,24.65
2023-04-17T04:33:22.253Z,25.77
2023-04-17T04:35:51.154Z,26.23
2023-04-17T04:38:18.582Z,23.65
2023-04-17T04:40:49.797Z,26.13
2023-04-17T04:43:16.904Z,27.05
2023-04-17T04:45:43.970Z,24.95
2023-04-17T04:48:11.641Z,25.60
2023-04-17T04:50:38.694Z,23.98
2023-04-17T04:53:05.764Z,25.30
2023-04-17T04:55:32.955Z,23.67
2023-04-17T04:58:00.058Z,24.00
2023-04-17T05:00:27.147Z,25.98
2023-04-17T05:02:54.471Z,23.55
2023-04-17T05:05:21.809Z,23.58
2023-04-17T05:07:48.887Z,26.50
2023-04-17T05:10:16.073Z,22.05
2023-04-17T05:12:44.287Z,25.08
2023-04-17T05:15:11.450Z,23.67
2023-04-17T05:17:38.999Z,23.48
2023-04-17T05:20:06.873Z,24.95
2023-04-17T05:22:34.011Z,26.40
2023-04-17T05:25:01.072Z,26.08
2023-04-17T05:27:28.117Z,22.40
2023-04-17T05:29:55.194Z,23.48
2023-04-17T05:32:22.311Z,23.60
2023-04-17T05:34:49.375Z,26.08
2023-04-17T05:37:16.686Z,23.45
2023-04-17T05:39:43.751Z,21.98
2023-04-17T05:42:10.805Z,20.20
2023-04-17T05:44:38.037Z,22.90
2023-04-17T05:47:05.490Z,19.67
2023-04-17T05:49:33.020Z,22.88
2023-04-17T05:52:00.118Z,25.35
2023-04-17T05:54:30.108Z,27.50
2023-04-17T05:56:57.196Z,20.88
2023-04-17T05:59:24.330Z,29.65
2023-04-17T06:01:52.383Z,24.48
2023-04-17T06:04:19.788Z,25.00
2023-04-17T06:06:47.204Z,26.70
2023-04-17T06:09:14.601Z,20.42
2023-04-17T06:11:41.961Z,25.77
2023-04-17T06:14:09.038Z,21.63
2023-04-17T06:16:36.122Z,21.10
2023-04-17T06:19:03.250Z,21.80
2023-04-17T06:21:31.427Z,21.50
2023-04-17T06:23:58.505Z,19.08
2023-04-17T06:26:25.559Z,18.40
2023-04-17T06:28:52.618Z,19.23
2023-04-17T06:31:19.820Z,21.65
2023-04-17T06:33:49.740Z,23.75
2023-04-17T06:36:16.942Z,17.27
2023-04-17T06:38:44.054Z,20.23
2023-04-17T06:41:11.126Z,20.80
2023-04-17T06:43:38.260Z,18.65
2023-04-17T06:46:05.505Z,20.30
2023-04-17T06:48:32.603Z,20.73
2023-04-17T06:50:59.693Z,17.17
2023-04-17T06:53:27.077Z,17.35
2023-04-17T06:55:54.613Z,16.00
2023-04-17T06:58:21.752Z,16.53
2023-04-17T07:00:48.814Z,17.55
2023-04-17T07:03:16.677Z,16.13
2023-04-17T07:05:44.831Z,14.18
2023-04-17T07:08:11.917Z,16.50
2023-04-17T07:10:38.970Z,12.32
2023-04-17T07:13:06.075Z,13.97
2023-04-17T07:15:33.216Z,15.23
2023-04-17T07:18:00.458Z,15.13
2023-04-17T07:20:27.625Z,14.77
2023-04-17T07:22:55.407Z,16.08
2023-04-17T07:25:22.493Z,18.83
2023-04-17T07:27:50.105Z,14.55
2023-04-17T07:30:17.173Z,12.02
2023-04-17T07:32:44.326Z,13.00
2023-04-17T07:35:11.681Z,14.30
2023-04-17T07:37:38.788Z,11.75
2023-04-17T07:40:08.991Z,13.65
2023-04-17T07:42:36.041Z,13.05
2023-04-17T07:45:03.261Z,12.18
2023-04-17T07:47:31.070Z,15.57
2023-04-17T07:49:58.178Z,13.20
2023-04-17T07:52:25.310Z,13.23
2023-04-17T07:54:52.410Z,15.20
2023-04-17T07:57:19.477Z,12.40
2023-04-17T07:59:47.316Z,12.70
2023-04-17T08:02:15.904Z,15.70
2023-04-17T08:04:44.628Z,12.75
2023-04-17T08:07:12.533Z,17.27
2023-04-17T08:09:41.028Z,15.48
2023-04-17T08:12:09.706Z,18.83
2023-04-17T08:14:36.865Z,15.32
2023-04-17T08:17:04.118Z,11.70
2023-04-17T08:19:31.865Z,15.18
2023-04-17T08:22:02.478Z,18.85
2023-04-17T08:24:30.286Z,13.80
2023-04-17T08:26:57.448Z,14.35
2023-04-17T08:29:24.686Z,15.20
2023-04-17T08:32:00.098Z,14.30
2023-04-17T08:34:38.686Z,12.40
2023-04-17T08:37:05.817Z,13.20
2023-04-17T08:39:32.895Z,14.30
2023-04-17T08:42:01.151Z,12.77
2023-04-17T08:44:28.230Z,14.63
2023-04-17T08:46:58.234Z,19.58
2023-04-17T08:49:25.629Z,15.57
2023-04-17T08:51:52.670Z,14.23
2023-04-17T08:54:21.973Z,14.77
2023-04-17T08:56:49.485Z,12.10
2023-04-17T08:59:19.367Z,15.02
2023-04-17T09:02:02.154Z,12.25
2023-04-17T09:04:35.335Z,14.10
2023-04-17T09:07:02.471Z,17.40
2023-04-17T09:09:48.251Z,21.88
2023-04-17T09:12:15.404Z,13.80
2023-04-17T09:14:42.557Z,13.63
2023-04-17T09:17:09.621Z,15.20
2023-04-17T09:19:36.706Z,15.93
2023-04-17T09:22:22.561Z,16.17
2023-04-17T09:24:49.734Z,13.93
2023-04-17T09:27:26.905Z,15.38
2023-04-17T09:29:58.077Z,14.03
2023-04-17T09:32:26.363Z,16.38
2023-04-17T09:34:53.950Z,13.93
2023-04-17T09:37:21.376Z,12.40
2023-04-17T09:39:58.945Z,13.13
2023-04-17T09:42:26.408Z,12.00
2023-04-17T09:44:54.522Z,12.73
2023-04-17T09:47:22.864Z,14.90
2023-04-17T09:49:52.435Z,14.55
2023-04-17T09:52:23.867Z,11.40
2023-04-17T09:54:51.286Z,18.25
2023-04-17T09:57:18.729Z,13.70
2023-04-17T09:59:48.677Z,11.25
2023-04-17T10:02:19.601Z,11.77
2023-04-17T10:04:47.402Z,13.77
2023-04-17T10:07:14.605Z,13.88
2023-04-17T10:09:42.131Z,13.10
2023-04-17T10:12:20.931Z,13.25
2023-04-17T10:14:48.852Z,10.82
2023-04-17T10:17:26.155Z,16.05
2023-04-17T10:19:53.343Z,12.38
2023-04-17T10:22:20.483Z,12.57
2023-04-17T10:24:51.959Z,11.68
2023-04-17T10:27:28.156Z,13.93
2023-04-17T10:29:58.890Z,13.45
2023-04-17T10:32:28.377Z,11.90
2023-04-17T10:35:02.136Z,11.52
2023-04-17T10:37:50.592Z,9.70
2023-04-17T10:40:21.474Z,7.55
2023-04-17T10:43:07.748Z,8.38
2023-04-17T10:45:55.556Z,9.48
2023-04-17T10:48:35.243Z,10.32
2023-04-17T10:51:28.872Z,9.93
2023-04-17T10:53:56.400Z,8.65
2023-04-17T10:56:26.985Z,11.30
2023-04-17T10:58:58.296Z,10.38
2023-04-17T11:01:28.804Z,9.93
2023-04-17T11:03:56.208Z,9.98
2023-04-17T11:06:23.363Z,9.95
2023-04-17T11:08:50.776Z,10.00
2023-04-17T11:11:26.802Z,9.38
2023-04-17T11:13:57.834Z,9.13
2023-04-17T11:16:24.982Z,7.55
2023-04-17T11:18:52.149Z,8.25
2023-04-17T11:21:19.309Z,8.35
2023-04-17T11:23:52.684Z,8.47
2023-04-17T11:26:20.813Z,8.13
2023-04-17T11:28:48.035Z,8.75
2023-04-17T11:31:18.525Z,6.80
2023-04-17T11:33:48.353Z,7.75
2023-04-17T11:36:15.590Z,8.15
2023-04-17T11:38:48.567Z,7.10
2023-04-17T11:41:15.659Z,7.38
2023-04-17T11:43:44.091Z,5.20
2023-04-17T11:46:11.242Z,5.50
2023-04-17T11:48:38.713Z,7.38
2023-04-17T11:51:06.592Z,7.00
2023-04-17T11:53:34.984Z,7.88
2023-04-17T11:59:34.207Z,5.55
2023-04-17T12:02:01.972Z,6.75
2023-04-17T12:04:30.414Z,6.63
2023-04-17T12:06:59.678Z,5.95
2023-04-17T12:09:31.424Z,7.53
2023-04-17T12:12:03.709Z,4.93
2023-04-17T12:14:31.329Z,5.97
2023-04-17T12:16:58.472Z,4.32
2023-04-17T12:19:27.964Z,4.57
2023-04-17T12:21:55.701Z,4.75
2023-04-17T12:24:24.778Z,3.90
2023-04-17T12:26:52.346Z,5.78
2023-04-17T12:29:29.050Z,4.68
2023-04-17T12:31:59.874Z,4.07
2023-04-17T12:34:27.958Z,4.68
2023-04-17T12:36:55.235Z,4.30
2023-04-17T12:39:22.456Z,5.60
2023-04-17T12:41:49.551Z,4.30
2023-04-17T12:44:16.895Z,3.50
2023-04-17T12:46:44.038Z,3.95
2023-04-17T12:49:11.350Z,3.95
2023-04-17T12:51:38.554Z,4.15
2023-04-17T12:54:05.700Z,3.95
2023-04-17T12:56:32.924Z,4.15
2023-04-17T12:59:02.233Z,3.50
2023-04-17T13:01:30.216Z,3.58
2023-04-17T13:03:57.592Z,8.05
2023-04-17T13:06:24.875Z,5.03
2023-04-17T13:08:52.002Z,4.60
2023-04-17T13:11:19.094Z,3.35
2023-04-17T13:13:46.993Z,5.07
2023-04-17T13:16:14.182Z,3.75
2023-04-17T13:18:41.406Z,4.20
2023-04-17T13:21:09.270Z,3.28
2023-04-17T13:23:36.428Z,3.95
2023-04-17T13:26:03.538Z,3.75
2023-04-17T13:28:30.724Z,3.80
2023-04-17T13:30:57.856Z,3.70
2023-04-17T13:33:25.049Z,3.17
2023-04-17T13:35:53.208Z,3.73
2023-04-17T13:38:20.320Z,4.00
2023-04-17T13:40:47.409Z,3.58
2023-04-17T13:43:14.540Z,3.43
2023-04-17T13:45:41.778Z,4.00
2023-04-17T13:48:08.990Z,3.95
2023-04-17T13:50:36.098Z,3.15
2023-04-17T13:53:03.269Z,3.55
2023-04-17T13:55:30.369Z,3.00
2023-04-17T13:57:57.965Z,3.10
2023-04-17T14:00:25.052Z,4.53
2023-04-17T14:02:52.385Z,3.42
2023-04-17T14:05:19.751Z,5.35
2023-04-17T14:07:46.818Z,3.85
2023-04-17T14:10:14.299Z,3.38
2023-04-17T14:12:41.563Z,4.33
2023-04-17T14:15:08.875Z,3.90
2023-04-17T14:17:38.605Z,3.85
2023-04-17T14:20:06.261Z,5.20
2023-04-17T14:22:33.337Z,6.00
2023-04-17T14:25:00.488Z,5.18
2023-04-17T14:27:27.645Z,3.92
2023-04-17T14:29:54.747Z,4.95
2023-04-17T14:32:21.834Z,4.97
2023-04-17T14:34:48.990Z,4.10
2023-04-17T14:37:16.225Z,5.22
2023-04-17T14:39:43.408Z,3.27
2023-04-17T14:42:10.595Z,4.25
2023-04-17T14:44:37.789Z,4.47
2023-04-17T14:47:05.134Z,4.57
2023-04-17T14:49:32.298Z,5.10
2023-04-17T14:51:59.369Z,3.70
2023-04-17T14:54:26.488Z,3.88
2023-04-17T14:56:53.602Z,4.05
2023-04-17T14:59:20.696Z,5.65
2023-04-17T15:01:47.904Z,5.32
2023-04-17T15:04:15.215Z,4.05
2023-04-17T15:06:42.895Z,5.25
2023-04-17T15:09:10.266Z,4.07
2023-04-17T15:11:37.716Z,4.53
2023-04-17T15:14:04.918Z,3.40
2023-04-17T15:16:32.073Z,6.47
2023-04-17T15:18:59.229Z,3.40
2023-04-17T15:21:26.763Z,6.10
2023-04-17T15:23:53.874Z,3.92
2023-04-17T15:26:20.955Z,4.20
2023-04-17T15:28:48.037Z,4.68
2023-04-17T15:31:15.178Z,4.03
2023-04-17T15:33:42.373Z,3.15
2023-04-17T15:36:09.475Z,5.07
2023-04-17T15:38:36.547Z,4.80
2023-04-17T15:41:03.717Z,6.13
2023-04-17T15:43:30.855Z,19.33
2023-04-17T15:45:59.545Z,4.35
2023-04-17T15:48:27.483Z,4.20
2023-04-17T15:50:54.626Z,5.37
2023-04-17T15:53:21.803Z,3.78
2023-04-17T15:55:48.915Z,3.65
2023-04-17T15:58:16.493Z,4.50
2023-04-17T16:00:43.619Z,4.72
2023-04-17T16:03:11.604Z,5.37
2023-04-17T16:05:38.878Z,3.92
2023-04-17T16:08:05.957Z,4.07
2023-04-17T16:10:34.556Z,4.95
2023-04-17T16:13:01.821Z,6.15
2023-04-17T16:15:28.967Z,4.25
2023-04-17T16:17:56.151Z,4.20
2023-04-17T16:20:23.324Z,3.85
2023-04-17T16:22:50.569Z,3.28
2023-04-17T16:25:19.599Z,4.25
2023-04-17T16:27:47.810Z,4.55
2023-04-17T16:30:14.989Z,3.58
2023-04-17T16:32:44.183Z,4.65
2023-04-17T16:35:11.330Z,4.03
2023-04-17T16:37:38.433Z,4.38
2023-04-17T16:40:05.795Z,3.20
2023-04-17T16:42:33.041Z,3.97
2023-04-17T16:45:00.279Z,35.03
2023-04-17T16:47:29.346Z,24.13
2023-04-17T16:49:56.509Z,10.77
2023-04-17T16:52:23.603Z,3.95
2023-04-17T16:54:50.720Z,5.60
2023-04-17T16:57:17.806Z,6.22
2023-04-17T16:59:44.932Z,6.28
2023-04-17T17:02:12.126Z,5.72
2023-04-17T17:04:39.334Z,6.45
2023-04-17T17:07:06.493Z,6.78
2023-04-17T17:09:33.618Z,6.18
2023-04-17T17:12:00.960Z,7.90
2023-04-17T17:14:28.048Z,8.10
2023-04-17T17:16:55.228Z,7.05
2023-04-17T17:19:22.389Z,6.80
2023-04-17T17:21:49.952Z,7.43
2023-04-17T17:24:19.881Z,6.65
2023-04-17T17:26:47.007Z,5.82
2023-04-17T17:29:14.279Z,6.97
2023-04-17T17:31:41.517Z,6.55
2023-04-17T17:34:25.401Z,6.15
2023-04-17T17:36:53.514Z,5.85
2023-04-17T17:39:21.797Z,6.75
2023-04-17T17:41:49.241Z,6.10
2023-04-17T17:44:16.349Z,8.32
2023-04-17T17:46:43.581Z,6.60
2023-04-17T17:49:10.736Z,6.10
2023-04-17T17:51:37.841Z,7.97
2023-04-17T17:54:04.926Z,5.10
2023-04-17T17:56:32.019Z,6.03
2023-04-17T17:58:59.121Z,5.23
2023-04-17T18:01:26.296Z,6.72
2023-04-17T18:03:53.726Z,6.80
2023-04-17T18:06:21.324Z,6.40
2023-04-17T18:08:48.686Z,8.67
2023-04-17T18:11:15.853Z,6.07
2023-04-17T18:13:42.957Z,8.35
2023-04-17T18:16:10.487Z,8.07
2023-04-17T18:18:37.656Z,8.93
2023-04-17T18:21:08.080Z,8.05
2023-04-17T18:23:35.182Z,7.43
2023-04-17T18:26:02.743Z,10.32
2023-04-17T18:28:29.882Z,8.95
2023-04-17T18:30:57.054Z,8.00
2023-04-17T18:33:24.560Z,9.93
2023-04-17T18:35:51.858Z,10.40
2023-04-17T18:38:19.072Z,11.73
2023-04-17T18:40:46.177Z,10.02
2023-04-17T18:43:13.350Z,10.35
2023-04-17T18:45:40.563Z,10.50
2023-04-17T18:48:07.885Z,10.32
2023-04-17T18:50:35.084Z,12.75
2023-04-17T18:53:02.552Z,10.73
2023-04-17T18:55:29.727Z,13.65
2023-04-17T18:57:56.837Z,12.65
2023-04-17T19:00:24.103Z,14.88
2023-04-17T19:02:51.368Z,14.57
2023-04-17T19:05:20.322Z,16.47
2023-04-17T19:07:47.742Z,14.05
2023-04-17T19:10:14.878Z,15.05
2023-04-17T19:12:43.051Z,17.88
2023-04-17T19:15:10.681Z,18.35
2023-04-17T19:17:38.062Z,16.10
2023-04-17T19:20:06.058Z,15.80
2023-04-17T19:22:33.150Z,15.60
2023-04-17T19:25:00.290Z,17.50
2023-04-17T19:27:27.458Z,15.35
2023-04-17T19:29:54.547Z,14.90
2023-04-17T19:32:21.721Z,17.23
2023-04-17T19:34:48.872Z,13.52
2023-04-17T19:37:15.972Z,13.88
2023-04-17T19:39:43.067Z,15.13
2023-04-17T19:42:10.149Z,18.00
2023-04-17T19:44:37.298Z,16.38
2023-04-17T19:47:04.520Z,21.58
2023-04-17T19:49:31.658Z,16.90
2023-04-17T19:52:00.818Z,18.70
2023-04-17T19:54:27.965Z,14.50
2023-04-17T19:56:55.065Z,15.65
2023-04-17T19:59:22.134Z,16.17
2023-04-17T20:01:49.274Z,15.88
2023-04-17T20:04:16.720Z,15.77
2023-04-17T20:06:44.295Z,16.77
2023-04-17T20:09:13.928Z,17.05
2023-04-17T20:11:41.790Z,15.30
2023-04-17T20:14:08.918Z,16.75
2023-04-17T20:16:36.059Z,20.40
2023-04-17T20:19:03.188Z,16.35
2023-04-17T20:21:30.304Z,17.30
2023-04-17T20:23:59.272Z,17.23
2023-04-17T20:26:26.541Z,19.23
2023-04-17T20:28:54.674Z,18.17
2023-04-17T20:31:21.957Z,16.70
2023-04-17T20:33:49.182Z,17.70
2023-04-17T20:36:16.432Z,17.90
2023-04-17T20:38:43.880Z,17.00
2023-04-17T20:41:11.001Z,18.23
2023-04-17T20:43:38.196Z,18.10
2023-04-17T20:46:07.289Z,17.40
2023-04-17T20:48:34.694Z,18.20
2023-04-17T20:51:02.493Z,19.40
2023-04-17T20:53:29.557Z,16.92
2023-04-17T20:55:57.919Z,18.80
2023-04-17T20:58:25.239Z,18.65
2023-04-17T21:01:00.702Z,17.05
2023-04-17T21:03:32.150Z,16.67
2023-04-17T21:05:59.586Z,17.02
2023-04-17T21:08:26.727Z,16.33
2023-04-17T21:10:53.836Z,19.33
2023-04-17T21:13:20.937Z,17.83
2023-04-17T21:15:48.630Z,20.83
2023-04-17T21:18:18.700Z,18.17
2023-04-17T21:20:45.886Z,17.63
2023-04-17T21:23:12.976Z,29.63
2023-04-17T21:25:40.095Z,28.33
2023-04-17T21:28:07.171Z,21.77
2023-04-17T21:30:34.249Z,21.52
2023-04-17T21:33:01.383Z,21.52
2023-04-17T21:35:28.623Z,20.65
2023-04-17T21:37:55.687Z,20.25
2023-04-17T21:40:22.772Z,21.38
2023-04-17T21:42:49.850Z,22.20
2023-04-17T21:45:17.007Z,22.92
2023-04-17T21:47:44.111Z,23.67
2023-04-17T21:50:11.441Z,21.73
2023-04-17T21:52:38.655Z,24.45
2023-04-17T21:55:07.650Z,19.30
2023-04-17T21:57:35.228Z,23.75
2023-04-17T22:00:02.648Z,25.43
2023-04-17T22:02:29.832Z,24.85
2023-04-17T22:04:57.012Z,22.60
2023-04-17T22:07:24.126Z,22.30
2023-04-17T22:09:51.223Z,22.30
2023-04-17T22:12:20.518Z,23.27
2023-04-17T22:14:48.060Z,21.63
2023-04-17T22:17:18.205Z,23.20
2023-04-17T22:19:45.367Z,22.88
2023-04-17T22:22:12.423Z,21.25
2023-04-17T22:24:39.602Z,22.35
2023-04-17T22:27:06.840Z,23.33
2023-04-17T22:29:33.959Z,22.95
2023-04-17T22:32:02.009Z,22.92
2023-04-17T22:34:29.075Z,22.23
2023-04-17T22:36:56.178Z,22.77
2023-04-17T22:39:23.277Z,22.07
2023-04-17T22:41:50.396Z,20.48
2023-04-17T22:44:17.480Z,20.95
2023-04-17T22:46:44.674Z,23.58
2023-04-17T22:49:12.279Z,22.33
2023-04-17T22:51:39.362Z,22.60
2023-04-17T22:54:18.993Z,23.05
2023-04-17T22:56:49.046Z,24.08
2023-04-17T22:59:16.117Z,23.20
2023-04-17T23:01:43.317Z,23.20
2023-04-17T23:04:10.823Z,22.00
2023-04-17T23:06:38.047Z,22.80
2023-04-17T23:09:05.221Z,23.25
2023-04-17T23:11:32.768Z,21.30
2023-04-17T23:13:59.905Z,22.95
2023-04-17T23:16:27.014Z,20.23
2023-04-17T23:18:54.132Z,20.27
2023-04-17T23:21:21.227Z,19.23
2023-04-17T23:23:48.697Z,19.08
2023-04-17T23:26:15.882Z,22.23
2023-04-17T23:28:42.988Z,22.15
2023-04-17T23:31:10.196Z,23.98
2023-04-17T23:33:37.293Z,21.88
2023-04-17T23:36:04.456Z,18.10
2023-04-17T23:38:31.533Z,21.40
2023-04-17T23:40:58.665Z,21.50
2023-04-17T23:43:25.847Z,17.48
2023-04-17T23:45:53.328Z,21.20
2023-04-17T23:48:20.511Z,21.08
2023-04-17T23:50:47.951Z,21.63
2023-04-17T23:53:15.048Z,19.85
2023-04-17T23:55:42.122Z,20.95
2023-04-17T23:58:09.276Z,21.73
